createdAt,value
2019-04-05T00:00:12.453Z,8.30
2019-04-05T00:01:12.449Z,10.40
2019-04-05T00:02:12.427Z,10.80
2019-04-05T00:03:12.414Z,9.60
2019-04-05T00:04:12.404Z,11.50
2019-04-05T00:05:12.395Z,10.00
2019-04-05T00:06:12.394Z,9.30
2019-04-05T00:07:12.373Z,9.90
2019-04-05T00:08:12.361Z,6.80
2019-04-05T00:09:12.352Z,7.70
2019-04-05T00:10:12.349Z,9.80
2019-04-05T00:11:12.336Z,9.40
2019-04-05T00:12:12.320Z,12.50
2019-04-05T00:13:12.307Z,9.60
2019-04-05T00:14:12.298Z,9.10
2019-04-05T00:15:15.585Z,9.50
2019-04-05T00:16:12.281Z,10.40
2019-04-05T00:17:12.264Z,9.60
2019-04-05T00:18:12.250Z,11.50
2019-04-05T00:19:12.241Z,8.90
2019-04-05T00:20:12.232Z,8.50
2019-04-05T00:21:12.227Z,9.70
2019-04-05T00:22:12.208Z,12.30
2019-04-05T00:23:12.196Z,10.10
2019-04-05T00:24:12.186Z,8.50
2019-04-05T00:25:12.177Z,15.00
2019-04-05T00:26:12.172Z,9.10
2019-04-05T00:27:12.153Z,6.60
2019-04-05T00:28:12.142Z,10.00
2019-04-05T00:29:12.131Z,9.90
2019-04-05T00:30:12.120Z,10.90
2019-04-05T00:31:12.118Z,9.70
2019-04-05T00:32:12.098Z,12.30
2019-04-05T00:33:12.087Z,9.70
2019-04-05T00:34:12.074Z,9.40
2019-04-05T00:35:12.063Z,10.70
2019-04-05T00:36:12.065Z,11.20
2019-04-05T00:37:12.044Z,9.30
2019-04-05T00:38:12.032Z,10.40
2019-04-05T00:39:12.021Z,12.20
2019-04-05T00:40:12.011Z,11.60
2019-04-05T00:41:12.031Z,9.40
2019-04-05T00:42:11.988Z,10.10
2019-04-05T00:43:11.978Z,8.60
2019-04-05T00:44:11.967Z,10.10
2019-04-05T00:45:11.957Z,10.70
2019-04-05T00:46:11.964Z,11.30
2019-04-05T00:47:11.944Z,10.50
2019-04-05T00:48:11.923Z,9.00
2019-04-05T00:49:11.911Z,8.20
2019-04-05T00:50:11.903Z,11.60
2019-04-05T00:51:11.889Z,12.50
2019-04-05T00:52:11.889Z,9.90
2019-04-05T00:53:11.867Z,8.90
2019-04-05T00:54:11.856Z,11.30
2019-04-05T00:55:11.849Z,15.00
2019-04-05T00:56:11.836Z,13.10
2019-04-05T00:57:11.837Z,7.90
2019-04-05T00:58:11.813Z,9.40
2019-04-05T00:59:11.803Z,13.70
2019-04-05T01:00:11.791Z,9.50
2019-04-05T01:01:11.781Z,13.20
2019-04-05T01:02:11.779Z,10.80
2019-04-05T01:03:13.199Z,9.20
2019-04-05T01:04:11.748Z,12.50
2019-04-05T01:05:11.737Z,9.40
2019-04-05T01:06:11.728Z,10.10
2019-04-05T01:07:11.721Z,10.20
2019-04-05T01:08:11.703Z,8.50
2019-04-05T01:09:11.694Z,9.40
2019-04-05T01:10:11.681Z,8.80
2019-04-05T01:11:11.669Z,10.00
2019-04-05T01:12:11.666Z,7.70
2019-04-05T01:13:11.651Z,13.70
2019-04-05T01:14:11.636Z,8.50
2019-04-05T01:15:11.626Z,9.60
2019-04-05T01:16:11.613Z,10.90
2019-04-05T01:17:24.168Z,8.80
2019-04-05T01:18:12.591Z,10.50
2019-04-05T01:19:11.583Z,11.50
2019-04-05T01:20:11.586Z,11.00
2019-04-05T01:21:11.560Z,10.70
2019-04-05T01:22:11.556Z,9.70
2019-04-05T01:23:11.545Z,10.50
2019-04-05T01:24:11.530Z,11.80
2019-04-05T01:25:11.513Z,10.30
2019-04-05T01:26:11.505Z,11.20
2019-04-05T01:27:11.503Z,11.10
2019-04-05T01:28:11.484Z,10.50
2019-04-05T01:29:11.470Z,12.20
2019-04-05T01:30:11.461Z,10.40
2019-04-05T01:31:11.449Z,11.40
2019-04-05T01:32:11.447Z,12.00
2019-04-05T01:33:11.428Z,9.00
2019-04-05T01:34:11.417Z,10.00
2019-04-05T01:35:11.407Z,9.90
2019-04-05T01:36:11.396Z,9.20
2019-04-05T01:37:11.392Z,13.00
2019-04-05T01:38:11.373Z,9.80
2019-04-05T01:39:11.360Z,9.60
2019-04-05T01:40:11.353Z,11.60
2019-04-05T01:41:11.340Z,11.00
2019-04-05T01:42:11.346Z,9.00
2019-04-05T01:43:11.317Z,10.10
2019-04-05T01:44:11.307Z,10.00
2019-04-05T01:45:11.298Z,11.40
2019-04-05T01:46:11.308Z,10.60
2019-04-05T01:47:11.281Z,9.50
2019-04-05T01:48:11.265Z,10.60
2019-04-05T01:49:11.250Z,8.90
2019-04-05T01:50:11.242Z,13.10
2019-04-05T01:51:11.227Z,11.40
2019-04-05T01:52:11.228Z,12.90
2019-04-05T01:53:11.208Z,11.10
2019-04-05T01:54:11.197Z,9.90
2019-04-05T01:55:11.184Z,11.70
2019-04-05T01:56:11.173Z,11.80
2019-04-05T01:57:11.172Z,9.50
2019-04-05T01:58:11.150Z,10.90
2019-04-05T01:59:11.142Z,11.40
2019-04-05T02:00:11.129Z,9.10
2019-04-05T02:01:11.118Z,10.90
2019-04-05T02:02:11.117Z,9.70
2019-04-05T02:03:11.898Z,11.60
2019-04-05T02:04:11.085Z,11.50
2019-04-05T02:05:11.076Z,11.70
2019-04-05T02:06:11.063Z,10.50
2019-04-05T02:07:11.061Z,11.00
2019-04-05T02:08:11.041Z,10.50
2019-04-05T02:09:11.037Z,10.80
2019-04-05T02:10:11.018Z,10.70
2019-04-05T02:11:11.008Z,9.10
2019-04-05T02:12:11.066Z,12.20
2019-04-05T02:13:10.987Z,10.40
2019-04-05T02:14:10.975Z,11.30
2019-04-05T02:15:10.967Z,11.20
2019-04-05T02:16:10.952Z,8.70
2019-04-05T02:17:10.951Z,10.90
2019-04-05T02:18:10.950Z,13.90
2019-04-05T02:19:10.923Z,12.90
2019-04-05T02:20:10.915Z,11.00
2019-04-05T02:21:10.899Z,9.80
2019-04-05T02:22:10.896Z,13.00
2019-04-05T02:23:10.880Z,9.50
2019-04-05T02:24:10.864Z,11.80
2019-04-05T02:25:10.854Z,9.80
2019-04-05T02:26:10.845Z,9.60
2019-04-05T02:27:10.843Z,9.40
2019-04-05T02:28:10.820Z,9.30
2019-04-05T02:29:10.815Z,9.60
2019-04-05T02:30:10.801Z,10.00
2019-04-05T02:31:10.789Z,8.60
2019-04-05T02:32:10.787Z,11.40
2019-04-05T02:33:10.767Z,11.30
2019-04-05T02:34:10.756Z,13.10
2019-04-05T02:35:10.751Z,10.40
2019-04-05T02:36:10.746Z,10.10
2019-04-05T02:37:10.731Z,11.30
2019-04-05T02:38:10.713Z,14.40
2019-04-05T02:39:10.700Z,11.10
2019-04-05T02:40:10.689Z,12.40
2019-04-05T02:41:10.679Z,12.40
2019-04-05T02:42:10.676Z,10.60
2019-04-05T02:43:10.667Z,10.00
2019-04-05T02:44:10.646Z,10.70
2019-04-05T02:45:10.636Z,13.20
2019-04-05T02:46:22.579Z,11.30
2019-04-05T02:47:11.622Z,9.10
2019-04-05T02:48:10.600Z,14.00
2019-04-05T02:49:10.590Z,12.60
2019-04-05T02:50:10.585Z,10.80
2019-04-05T02:51:10.568Z,8.00
2019-04-05T02:52:10.565Z,10.10
2019-04-05T02:53:10.545Z,11.30
2019-04-05T02:54:10.536Z,10.90
2019-04-05T02:55:10.523Z,13.10
2019-04-05T02:56:10.519Z,10.20
2019-04-05T02:57:10.514Z,14.10
2019-04-05T02:58:10.492Z,10.40
2019-04-05T02:59:10.478Z,12.40
2019-04-05T03:00:10.468Z,10.10
2019-04-05T03:01:10.458Z,10.10
2019-04-05T03:02:10.461Z,8.90
2019-04-05T03:03:10.438Z,11.60
2019-04-05T03:04:10.462Z,10.60
2019-04-05T03:05:10.415Z,12.30
2019-04-05T03:06:10.416Z,11.70
2019-04-05T03:07:10.400Z,9.60
2019-04-05T03:08:10.380Z,13.60
2019-04-05T03:09:10.378Z,12.20
2019-04-05T03:10:10.358Z,10.20
2019-04-05T03:11:10.353Z,8.80
2019-04-05T03:12:10.344Z,10.10
2019-04-05T03:13:10.328Z,12.30
2019-04-05T03:14:10.316Z,12.90
2019-04-05T03:15:10.304Z,9.70
2019-04-05T03:16:10.300Z,11.10
2019-04-05T03:17:10.294Z,13.80
2019-04-05T03:18:10.269Z,9.90
2019-04-05T03:19:10.276Z,8.70
2019-04-05T03:20:10.256Z,13.80
2019-04-05T03:21:10.239Z,11.00
2019-04-05T03:22:10.244Z,9.90
2019-04-05T03:23:10.217Z,9.70
2019-04-05T03:24:10.208Z,12.60
2019-04-05T03:25:10.194Z,12.00
2019-04-05T03:26:10.181Z,13.30
2019-04-05T03:27:10.205Z,12.10
2019-04-05T03:28:10.162Z,14.60
2019-04-05T03:29:10.152Z,11.60
2019-04-05T03:30:10.145Z,10.30
2019-04-05T03:31:10.126Z,11.30
2019-04-05T03:32:10.131Z,10.60
2019-04-05T03:33:10.131Z,9.50
2019-04-05T03:34:10.098Z,11.50
2019-04-05T03:35:10.101Z,10.80
2019-04-05T03:36:10.074Z,10.10
2019-04-05T03:37:10.060Z,11.20
2019-04-05T03:38:10.086Z,12.30
2019-04-05T03:39:10.070Z,9.30
2019-04-05T03:40:10.028Z,12.40
2019-04-05T03:41:10.017Z,10.50
2019-04-05T03:42:10.007Z,12.60
2019-04-05T03:43:10.010Z,11.90
2019-04-05T03:44:09.982Z,11.80
2019-04-05T03:45:10.013Z,18.00
2019-04-05T03:46:09.972Z,11.40
2019-04-05T03:47:09.954Z,12.90
2019-04-05T03:48:09.950Z,12.50
2019-04-05T03:49:09.930Z,11.50
2019-04-05T03:50:09.920Z,12.20
2019-04-05T03:51:09.908Z,13.30
2019-04-05T03:52:09.897Z,13.60
2019-04-05T03:53:09.899Z,10.90
2019-04-05T03:54:09.887Z,9.80
2019-04-05T03:55:09.866Z,12.50
2019-04-05T03:56:09.851Z,13.70
2019-04-05T03:57:09.839Z,11.40
2019-04-05T03:58:09.839Z,14.50
2019-04-05T03:59:09.825Z,11.30
2019-04-05T04:00:09.808Z,14.10
2019-04-05T04:01:09.799Z,12.20
2019-04-05T04:02:09.785Z,13.40
2019-04-05T04:03:09.792Z,13.80
2019-04-05T04:04:09.770Z,12.30
2019-04-05T04:05:09.759Z,13.90
2019-04-05T04:06:09.740Z,10.70
2019-04-05T04:07:09.735Z,9.90
2019-04-05T04:08:09.791Z,12.60
2019-04-05T04:09:09.708Z,10.40
2019-04-05T04:10:09.697Z,12.00
2019-04-05T04:11:09.687Z,11.80
2019-04-05T04:12:09.677Z,11.30
2019-04-05T04:13:09.673Z,11.50
2019-04-05T04:14:09.655Z,17.30
2019-04-05T04:15:13.357Z,11.20
2019-04-05T04:16:09.632Z,10.10
2019-04-05T04:17:12.800Z,13.60
2019-04-05T04:18:09.619Z,10.20
2019-04-05T04:19:09.599Z,11.50
2019-04-05T04:20:09.588Z,11.60
2019-04-05T04:21:09.577Z,13.90
2019-04-05T04:22:09.570Z,13.50
2019-04-05T04:23:09.563Z,13.30
2019-04-05T04:24:09.547Z,10.60
2019-04-05T04:25:09.536Z,11.00
2019-04-05T04:26:09.524Z,12.10
2019-04-05T04:27:09.511Z,14.50
2019-04-05T04:28:09.508Z,10.50
2019-04-05T04:29:09.497Z,11.10
2019-04-05T04:30:09.479Z,11.40
2019-04-05T04:31:09.466Z,11.60
2019-04-05T04:32:09.457Z,13.00
2019-04-05T04:33:09.463Z,13.60
2019-04-05T04:34:09.435Z,12.00
2019-04-05T04:35:09.427Z,14.50
2019-04-05T04:36:12.904Z,11.80
2019-04-05T04:37:09.402Z,12.20
2019-04-05T04:38:09.404Z,9.40
2019-04-05T04:39:09.384Z,11.20
2019-04-05T04:40:09.369Z,11.20
2019-04-05T04:41:09.358Z,11.60
2019-04-05T04:42:09.347Z,13.30
2019-04-05T04:43:09.363Z,12.60
2019-04-05T04:44:09.324Z,11.80
2019-04-05T04:45:12.493Z,12.70
2019-04-05T04:46:09.304Z,16.40
2019-04-05T04:47:09.292Z,11.20
2019-04-05T04:48:09.281Z,11.30
2019-04-05T04:49:09.283Z,11.60
2019-04-05T04:50:09.268Z,11.60
2019-04-05T04:51:09.247Z,13.60
2019-04-05T04:52:09.239Z,13.00
2019-04-05T04:53:09.227Z,13.10
2019-04-05T04:54:09.224Z,12.00
2019-04-05T04:55:09.208Z,13.40
2019-04-05T04:56:09.195Z,13.70
2019-04-05T04:57:09.183Z,14.30
2019-04-05T04:58:09.172Z,12.30
2019-04-05T04:59:09.178Z,12.30
2019-04-05T05:00:09.155Z,13.20
2019-04-05T05:01:09.138Z,10.80
2019-04-05T05:02:09.128Z,13.70
2019-04-05T05:03:09.116Z,12.60
2019-04-05T05:04:09.117Z,15.70
2019-04-05T05:05:09.095Z,13.70
2019-04-05T05:06:09.094Z,15.30
2019-04-05T05:07:09.073Z,11.30
2019-04-05T05:08:09.068Z,13.80
2019-04-05T05:09:09.066Z,14.20
2019-04-05T05:10:09.041Z,14.70
2019-04-05T05:11:14.816Z,12.30
2019-04-05T05:12:10.018Z,10.20
2019-04-05T05:13:09.007Z,14.40
2019-04-05T05:14:09.007Z,16.70
2019-04-05T05:15:08.986Z,12.10
2019-04-05T05:16:08.979Z,9.40
2019-04-05T05:17:08.963Z,15.20
2019-04-05T05:18:08.955Z,11.10
2019-04-05T05:19:08.953Z,14.00
2019-04-05T05:20:08.931Z,11.90
2019-04-05T05:21:08.919Z,12.40
2019-04-05T05:22:08.909Z,11.00
2019-04-05T05:23:08.901Z,12.70
2019-04-05T05:24:08.898Z,11.50
2019-04-05T05:25:08.876Z,13.80
2019-04-05T05:26:08.865Z,11.30
2019-04-05T05:27:08.858Z,10.90
2019-04-05T05:28:08.842Z,13.30
2019-04-05T05:29:08.842Z,12.00
2019-04-05T05:30:08.821Z,11.70
2019-04-05T05:31:08.810Z,11.00
2019-04-05T05:32:09.772Z,12.10
2019-04-05T05:33:08.789Z,13.00
2019-04-05T05:34:08.790Z,11.20
2019-04-05T05:35:08.765Z,11.60
2019-04-05T05:36:10.483Z,11.50
2019-04-05T05:37:08.744Z,10.50
2019-04-05T05:38:08.756Z,10.60
2019-04-05T05:39:08.738Z,12.80
2019-04-05T05:40:08.712Z,13.90
2019-04-05T05:41:08.745Z,11.70
2019-04-05T05:42:08.686Z,11.90
2019-04-05T05:43:08.680Z,12.00
2019-04-05T05:44:08.674Z,12.60
2019-04-05T05:45:08.654Z,13.60
2019-04-05T05:46:08.644Z,10.80
2019-04-05T05:47:08.635Z,10.80
2019-04-05T05:48:08.622Z,12.30
2019-04-05T05:49:08.623Z,18.70
2019-04-05T05:50:08.601Z,14.40
2019-04-05T05:51:08.592Z,15.70
2019-04-05T05:52:08.577Z,13.30
2019-04-05T05:53:08.570Z,12.10
2019-04-05T05:54:08.567Z,13.10
2019-04-05T05:55:08.543Z,10.90
2019-04-05T05:56:08.534Z,12.90
2019-04-05T05:57:08.522Z,12.80
2019-04-05T05:58:08.516Z,13.30
2019-04-05T05:59:08.510Z,14.00
2019-04-05T06:00:08.493Z,15.10
2019-04-05T06:01:08.480Z,15.30
2019-04-05T06:02:08.473Z,17.00
2019-04-05T06:03:10.824Z,14.00
2019-04-05T06:04:08.459Z,15.50
2019-04-05T06:05:08.435Z,12.20
2019-04-05T06:06:08.425Z,13.30
2019-04-05T06:07:08.414Z,11.80
2019-04-05T06:08:08.403Z,12.70
2019-04-05T06:09:08.400Z,12.80
2019-04-05T06:10:08.380Z,13.30
2019-04-05T06:11:08.373Z,13.10
2019-04-05T06:12:08.361Z,14.90
2019-04-05T06:13:08.349Z,12.50
2019-04-05T06:14:08.345Z,14.80
2019-04-05T06:15:08.324Z,13.10
2019-04-05T06:16:08.316Z,13.00
2019-04-05T06:17:08.308Z,13.70
2019-04-05T06:18:11.993Z,11.20
2019-04-05T06:19:08.290Z,13.30
2019-04-05T06:20:08.271Z,13.00
2019-04-05T06:21:08.261Z,12.50
2019-04-05T06:22:08.248Z,16.60
2019-04-05T06:23:08.236Z,14.80
2019-04-05T06:24:08.488Z,14.70
2019-04-05T06:25:08.229Z,14.20
2019-04-05T06:26:08.206Z,11.70
2019-04-05T06:27:08.194Z,11.60
2019-04-05T06:28:08.181Z,14.50
2019-04-05T06:29:08.185Z,14.50
2019-04-05T06:30:08.161Z,15.50
2019-04-05T06:31:08.161Z,14.30
2019-04-05T06:32:08.139Z,14.40
2019-04-05T06:33:08.130Z,14.00
2019-04-05T06:34:08.125Z,14.10
2019-04-05T06:35:08.105Z,15.80
2019-04-05T06:36:08.094Z,14.70
2019-04-05T06:37:08.082Z,12.90
2019-04-05T06:38:08.073Z,15.50
2019-04-05T06:39:08.071Z,16.20
2019-04-05T06:40:08.048Z,18.70
2019-04-05T06:41:08.038Z,17.30
2019-04-05T06:42:08.029Z,13.20
2019-04-05T06:43:08.019Z,15.00
2019-04-05T06:44:08.016Z,15.00
2019-04-05T06:45:07.995Z,19.50
2019-04-05T06:46:07.986Z,17.40
2019-04-05T06:47:07.972Z,18.30
2019-04-05T06:48:18.441Z,15.80
2019-04-05T06:49:08.960Z,17.60
2019-04-05T06:50:07.939Z,15.50
2019-04-05T06:51:07.930Z,15.90
2019-04-05T06:52:07.918Z,15.20
2019-04-05T06:53:07.906Z,14.60
2019-04-05T06:54:07.906Z,15.00
2019-04-05T06:55:07.884Z,14.10
2019-04-05T06:56:07.881Z,22.80
2019-04-05T06:57:07.906Z,15.40
2019-04-05T06:58:10.302Z,19.60
2019-04-05T06:59:07.851Z,16.30
2019-04-05T07:00:07.833Z,16.20
2019-04-05T07:01:07.819Z,17.80
2019-04-05T07:02:07.808Z,15.10
2019-04-05T07:03:07.797Z,16.40
2019-04-05T07:04:07.796Z,17.40
2019-04-05T07:05:07.774Z,21.30
2019-04-05T07:06:07.799Z,17.50
2019-04-05T07:07:07.755Z,15.40
2019-04-05T07:08:07.749Z,16.40
2019-04-05T07:09:07.765Z,21.80
2019-04-05T07:10:07.722Z,16.00
2019-04-05T07:11:07.716Z,19.50
2019-04-05T07:12:07.697Z,15.30
2019-04-05T07:13:07.797Z,16.40
2019-04-05T07:14:07.676Z,20.50
2019-04-05T07:15:07.679Z,18.20
2019-04-05T07:16:07.654Z,16.90
2019-04-05T07:17:07.649Z,19.40
2019-04-05T07:18:07.633Z,18.40
2019-04-05T07:19:07.625Z,22.30
2019-04-05T07:20:07.621Z,21.40
2019-04-05T07:21:07.605Z,20.00
2019-04-05T07:22:07.593Z,19.80
2019-04-05T07:23:07.578Z,22.00
2019-04-05T07:24:07.571Z,21.10
2019-04-05T07:25:07.569Z,22.20
2019-04-05T07:26:07.566Z,26.10
2019-04-05T07:27:07.537Z,23.90
2019-04-05T07:28:07.521Z,28.30
2019-04-05T07:29:07.511Z,24.00
2019-04-05T07:30:07.551Z,24.00
2019-04-05T07:31:07.491Z,26.20
2019-04-05T07:32:07.478Z,24.90
2019-04-05T07:33:07.468Z,22.50
2019-04-05T07:34:07.460Z,26.50
2019-04-05T07:35:07.459Z,23.40
2019-04-05T07:36:07.437Z,24.70
2019-04-05T07:37:07.423Z,26.50
2019-04-05T07:38:09.644Z,25.30
2019-04-05T07:39:07.403Z,28.10
2019-04-05T07:40:07.403Z,25.70
2019-04-05T07:41:07.385Z,29.00
2019-04-05T07:42:07.370Z,26.80
2019-04-05T07:43:07.359Z,24.50
2019-04-05T07:44:07.351Z,25.90
2019-04-05T07:45:07.347Z,28.60
2019-04-05T07:46:07.325Z,28.20
2019-04-05T07:47:07.316Z,26.50
2019-04-05T07:48:07.305Z,23.80
2019-04-05T07:49:07.306Z,27.80
2019-04-05T07:50:07.293Z,28.90
2019-04-05T07:51:07.270Z,26.90
2019-04-05T07:52:07.261Z,32.30
2019-04-05T07:53:07.250Z,32.00
2019-04-05T07:54:07.242Z,25.40
2019-04-05T07:55:07.234Z,27.80
2019-04-05T07:56:07.215Z,26.40
2019-04-05T07:57:07.206Z,28.80
2019-04-05T07:58:07.194Z,27.50
2019-04-05T07:59:07.183Z,25.80
2019-04-05T08:00:07.185Z,31.60
2019-04-05T08:01:07.164Z,29.30
2019-04-05T08:02:07.151Z,27.90
2019-04-05T08:03:07.139Z,29.50
2019-04-05T08:04:07.141Z,32.40
2019-04-05T08:05:07.129Z,27.50
2019-04-05T08:06:07.108Z,31.70
2019-04-05T08:07:07.107Z,26.00
2019-04-05T08:08:07.085Z,29.50
2019-04-05T08:09:07.080Z,32.70
2019-04-05T08:10:07.075Z,30.90
2019-04-05T08:11:07.052Z,28.60
2019-04-05T08:12:07.041Z,29.10
2019-04-05T08:13:07.029Z,30.10
2019-04-05T08:14:07.019Z,28.10
2019-04-05T08:15:07.017Z,24.20
2019-04-05T08:16:06.996Z,30.40
2019-04-05T08:17:06.987Z,27.90
2019-04-05T08:18:06.998Z,27.60
2019-04-05T08:19:06.962Z,28.40
2019-04-05T08:20:06.964Z,25.50
2019-04-05T08:21:06.947Z,33.30
2019-04-05T08:22:06.931Z,27.80
2019-04-05T08:23:06.939Z,28.70
2019-04-05T08:24:06.911Z,30.00
2019-04-05T08:25:06.907Z,32.00
2019-04-05T08:26:06.886Z,30.30
2019-04-05T08:27:06.877Z,28.50
2019-04-05T08:28:06.895Z,29.90
2019-04-05T08:29:06.856Z,27.00
2019-04-05T08:30:06.853Z,31.30
2019-04-05T08:31:10.504Z,27.20
2019-04-05T08:32:14.468Z,29.90
2019-04-05T08:33:07.813Z,29.20
2019-04-05T08:34:06.800Z,32.00
2019-04-05T08:35:06.797Z,28.60
2019-04-05T08:36:06.780Z,28.30
2019-04-05T08:37:06.770Z,31.70
2019-04-05T08:38:06.763Z,31.40
2019-04-05T08:39:06.745Z,30.00
2019-04-05T08:40:06.744Z,30.80
2019-04-05T08:41:06.721Z,31.00
2019-04-05T08:42:06.735Z,33.10
2019-04-05T08:43:06.699Z,32.90
2019-04-05T08:44:06.692Z,31.90
2019-04-05T08:45:06.686Z,30.90
2019-04-05T08:46:06.674Z,31.90
2019-04-05T08:47:06.656Z,30.60
2019-04-05T08:48:06.646Z,30.90
2019-04-05T08:49:11.123Z,31.80
2019-04-05T08:50:06.636Z,27.20
2019-04-05T08:51:06.610Z,32.50
2019-04-05T08:52:06.608Z,30.80
2019-04-05T08:53:06.587Z,31.90
2019-04-05T08:54:06.576Z,28.80
2019-04-05T08:55:06.578Z,35.40
2019-04-05T08:56:06.554Z,34.40
2019-04-05T08:57:06.542Z,29.50
2019-04-05T08:58:06.536Z,30.50
2019-04-05T08:59:06.520Z,32.40
2019-04-05T09:00:06.519Z,27.20
2019-04-05T09:01:06.568Z,30.00
2019-04-05T09:02:06.511Z,28.10
2019-04-05T09:03:06.478Z,27.40
2019-04-05T09:04:06.467Z,29.30
2019-04-05T09:05:06.467Z,26.90
2019-04-05T09:06:06.451Z,28.10
2019-04-05T09:07:06.436Z,32.00
2019-04-05T09:08:06.421Z,33.50
2019-04-05T09:09:06.413Z,34.70
2019-04-05T09:10:06.408Z,26.70
2019-04-05T09:11:06.388Z,29.40
2019-04-05T09:12:06.377Z,28.00
2019-04-05T09:13:06.364Z,27.90
2019-04-05T09:14:06.357Z,28.90
2019-04-05T09:15:06.357Z,28.10
2019-04-05T09:16:06.333Z,26.20
2019-04-05T09:17:06.322Z,30.80
2019-04-05T09:18:06.313Z,29.70
2019-04-05T09:19:06.299Z,31.60
2019-04-05T09:20:06.302Z,32.90
2019-04-05T09:21:06.277Z,30.80
2019-04-05T09:22:06.267Z,26.30
2019-04-05T09:23:06.255Z,31.20
2019-04-05T09:24:06.245Z,28.00
2019-04-05T09:25:06.246Z,31.50
2019-04-05T09:26:06.224Z,28.90
2019-04-05T09:27:06.210Z,31.90
2019-04-05T09:28:06.203Z,27.80
2019-04-05T09:29:09.116Z,30.10
2019-04-05T09:30:06.186Z,33.30
2019-04-05T09:31:06.168Z,32.70
2019-04-05T09:32:06.160Z,32.10
2019-04-05T09:33:06.145Z,36.40
2019-04-05T09:34:06.136Z,26.90
2019-04-05T09:35:06.155Z,33.80
2019-04-05T09:36:06.120Z,29.90
2019-04-05T09:37:06.099Z,31.00
2019-04-05T09:38:06.093Z,27.30
2019-04-05T09:39:06.079Z,34.10
2019-04-05T09:40:06.068Z,30.70
2019-04-05T09:41:06.068Z,33.80
2019-04-05T09:42:06.047Z,33.20
2019-04-05T09:43:06.040Z,32.70
2019-04-05T09:44:06.029Z,33.40
2019-04-05T09:45:06.015Z,36.50
2019-04-05T09:46:06.015Z,34.60
2019-04-05T09:47:05.989Z,30.20
2019-04-05T09:48:05.985Z,36.90
2019-04-05T09:49:05.972Z,35.00
2019-04-05T09:50:05.958Z,33.30
2019-04-05T09:51:07.256Z,35.50
2019-04-05T09:52:05.935Z,33.50
2019-04-05T09:53:05.925Z,34.60
2019-04-05T09:54:05.914Z,36.00
2019-04-05T09:55:05.904Z,32.10
2019-04-05T09:56:05.902Z,32.80
2019-04-05T09:57:05.900Z,34.40
2019-04-05T09:58:05.868Z,36.80
2019-04-05T09:59:05.861Z,36.90
2019-04-05T10:00:05.849Z,35.00
2019-04-05T10:01:05.848Z,35.60
2019-04-05T10:02:05.828Z,36.10
2019-04-05T10:03:05.821Z,36.40
2019-04-05T10:04:05.806Z,35.00
2019-04-05T10:05:05.845Z,37.90
2019-04-05T10:06:05.792Z,33.90
2019-04-05T10:07:05.774Z,35.80
2019-04-05T10:08:05.760Z,40.30
2019-04-05T10:09:05.747Z,39.80
2019-04-05T10:10:05.738Z,36.40
2019-04-05T10:11:05.742Z,35.50
2019-04-05T10:12:05.719Z,37.30
2019-04-05T10:13:05.711Z,39.50
2019-04-05T10:14:05.693Z,43.30
2019-04-05T10:15:05.682Z,39.70
2019-04-05T10:16:05.680Z,39.90
2019-04-05T10:17:05.662Z,43.70
2019-04-05T10:18:05.652Z,39.50
2019-04-05T10:19:05.639Z,35.70
2019-04-05T10:20:05.629Z,35.30
2019-04-05T10:21:05.630Z,43.90
2019-04-05T10:22:05.608Z,36.00
2019-04-05T10:23:05.607Z,39.70
2019-04-05T10:24:05.586Z,37.10
2019-04-05T10:25:05.573Z,40.40
2019-04-05T10:26:05.570Z,37.20
2019-04-05T10:27:05.552Z,41.70
2019-04-05T10:28:05.541Z,45.20
2019-04-05T10:29:05.529Z,39.10
2019-04-05T10:30:05.521Z,41.70
2019-04-05T10:31:05.518Z,42.40
2019-04-05T10:32:05.497Z,40.90
2019-04-05T10:33:05.486Z,43.60
2019-04-05T10:34:05.474Z,37.70
2019-04-05T10:35:05.468Z,36.50
2019-04-05T10:36:05.492Z,43.50
2019-04-05T10:37:05.441Z,44.80
2019-04-05T10:38:05.428Z,42.80
2019-04-05T10:39:05.419Z,43.60
2019-04-05T10:40:05.413Z,43.20
2019-04-05T10:41:05.407Z,42.60
2019-04-05T10:42:05.395Z,40.10
2019-04-05T10:43:05.377Z,45.40
2019-04-05T10:44:05.365Z,43.50
2019-04-05T10:45:05.351Z,46.10
2019-04-05T10:46:05.354Z,50.30
2019-04-05T10:47:05.331Z,40.30
2019-04-05T10:48:05.320Z,46.10
2019-04-05T10:49:05.306Z,49.40
2019-04-05T10:50:05.297Z,46.50
2019-04-05T10:51:05.299Z,56.90
2019-04-05T10:52:05.276Z,49.90
2019-04-05T10:53:05.264Z,46.20
2019-04-05T10:54:05.251Z,48.00
2019-04-05T10:55:05.240Z,41.80
2019-04-05T10:56:05.238Z,42.50
2019-04-05T10:57:05.219Z,48.90
2019-04-05T10:58:05.207Z,48.20
2019-04-05T10:59:05.200Z,39.30
2019-04-05T11:00:05.287Z,50.40
2019-04-05T11:01:05.182Z,47.80
2019-04-05T11:02:05.165Z,43.60
2019-04-05T11:03:05.153Z,42.60
2019-04-05T11:04:05.142Z,43.30
2019-04-05T11:05:05.132Z,38.00
2019-04-05T11:06:05.135Z,44.50
2019-04-05T11:07:05.111Z,42.10
2019-04-05T11:08:05.098Z,38.80
2019-04-05T11:09:05.091Z,45.60
2019-04-05T11:10:05.075Z,45.00
2019-04-05T11:11:05.075Z,41.90
2019-04-05T11:12:05.054Z,42.80
2019-04-05T11:13:05.043Z,44.40
2019-04-05T11:14:13.525Z,40.10
2019-04-05T11:15:06.021Z,42.80
2019-04-05T11:16:05.020Z,38.80
2019-04-05T11:17:05.172Z,46.20
2019-04-05T11:18:04.994Z,36.60
2019-04-05T11:19:04.983Z,37.80
2019-04-05T11:20:14.927Z,36.90
2019-04-05T11:21:05.968Z,31.80
2019-04-05T11:22:04.944Z,36.80
2019-04-05T11:23:04.932Z,38.80
2019-04-05T11:24:04.924Z,38.30
2019-04-05T11:25:04.912Z,40.60
2019-04-05T11:26:04.922Z,34.50
2019-04-05T11:27:06.711Z,35.80
2019-04-05T11:28:04.876Z,48.80
2019-04-05T11:29:04.866Z,33.80
2019-04-05T11:30:04.855Z,36.10
2019-04-05T11:31:04.851Z,33.80
2019-04-05T11:32:04.834Z,34.60
2019-04-05T11:33:04.822Z,33.80
2019-04-05T11:34:04.812Z,37.90
2019-04-05T11:35:04.798Z,29.60
2019-04-05T11:36:04.812Z,31.40
2019-04-05T11:37:04.777Z,36.40
2019-04-05T11:38:04.765Z,35.90
2019-04-05T11:39:05.427Z,34.00
2019-04-05T11:40:04.744Z,32.30
2019-04-05T11:41:04.754Z,36.90
2019-04-05T11:42:04.726Z,31.30
2019-04-05T11:43:04.712Z,30.80
2019-04-05T11:44:04.698Z,32.10
2019-04-05T11:45:04.688Z,33.10
2019-04-05T11:46:04.690Z,30.70
2019-04-05T11:47:04.669Z,31.30
2019-04-05T11:48:04.660Z,30.40
2019-04-05T11:49:04.648Z,33.40
2019-04-05T11:50:04.632Z,28.40
2019-04-05T11:51:04.633Z,30.90
2019-04-05T11:52:04.621Z,35.00
2019-04-05T11:53:04.599Z,35.10
2019-04-05T11:54:04.593Z,30.90
2019-04-05T11:55:04.793Z,32.80
2019-04-05T11:56:14.616Z,30.00
2019-04-05T11:57:05.552Z,27.10
2019-04-05T11:58:04.542Z,29.70
2019-04-05T11:59:04.533Z,28.90
2019-04-05T12:00:04.528Z,25.80
2019-04-05T12:01:04.511Z,30.40
2019-04-05T12:02:04.510Z,30.00
2019-04-05T12:03:04.493Z,28.00
2019-04-05T12:04:04.487Z,30.50
2019-04-05T12:05:04.469Z,29.30
2019-04-05T12:06:04.457Z,28.10
2019-04-05T12:07:04.453Z,29.60
2019-04-05T12:08:04.433Z,29.80
2019-04-05T12:09:04.425Z,28.20
2019-04-05T12:10:04.413Z,29.30
2019-04-05T12:11:04.403Z,27.40
2019-04-05T12:12:04.403Z,29.50
2019-04-05T12:13:04.379Z,29.90
2019-04-05T12:14:04.369Z,31.50
2019-04-05T12:15:06.141Z,27.40
2019-04-05T12:16:06.000Z,27.40
2019-04-05T12:17:05.667Z,29.70
2019-04-05T12:18:04.634Z,28.40
2019-04-05T12:19:04.719Z,30.90
2019-04-05T12:20:04.307Z,30.20
2019-04-05T12:21:05.757Z,28.70
2019-04-05T12:22:05.300Z,30.50
2019-04-05T12:23:04.269Z,26.80
2019-04-05T12:24:04.261Z,26.10
2019-04-05T12:25:04.247Z,28.40
2019-04-05T12:26:04.995Z,27.80
2019-04-05T12:27:04.854Z,31.80
2019-04-05T12:28:07.526Z,27.90
2019-04-05T12:29:04.216Z,28.90
2019-04-05T12:30:04.193Z,32.50
2019-04-05T12:31:04.181Z,27.10
2019-04-05T12:32:04.183Z,30.60
2019-04-05T12:33:14.039Z,31.00
2019-04-05T12:34:05.153Z,29.10
2019-04-05T12:35:04.150Z,28.60
2019-04-05T12:36:04.125Z,30.90
2019-04-05T12:37:04.157Z,30.00
2019-04-05T12:38:06.833Z,32.10
2019-04-05T12:39:07.804Z,28.10
2019-04-05T12:40:05.218Z,28.20
2019-04-05T12:41:04.074Z,29.90
2019-04-05T12:42:04.074Z,30.30
2019-04-05T12:43:04.059Z,28.20
2019-04-05T12:44:04.038Z,28.50
2019-04-05T12:45:04.035Z,28.10
2019-04-05T12:46:04.019Z,31.50
2019-04-05T12:47:04.019Z,30.60
2019-04-05T12:48:04.000Z,26.20
2019-04-05T12:49:03.985Z,28.60
2019-04-05T12:50:03.972Z,26.60
2019-04-05T12:51:05.673Z,29.70
2019-04-05T12:52:03.960Z,28.30
2019-04-05T12:53:03.939Z,28.30
2019-04-05T12:54:03.928Z,30.90
2019-04-05T12:55:03.922Z,30.10